createdAt,value
2023-03-29T00:00:09.476Z,102094.56
2023-03-29T00:02:11.254Z,102100.81
2023-03-29T00:04:14.954Z,102091.03
2023-03-29T00:06:16.565Z,102094.56
2023-03-29T00:08:18.132Z,102091.03
2023-03-29T00:10:22.183Z,102089.34
2023-03-29T00:12:24.005Z,102092.88
2023-03-29T00:14:25.793Z,102088.50
2023-03-29T00:16:27.464Z,102084.78
2023-03-29T00:18:29.143Z,102091.19
2023-03-29T00:20:32.203Z,102084.09
2023-03-29T00:22:33.810Z,102083.22
2023-03-29T00:24:35.535Z,102089.47
2023-03-29T00:26:37.318Z,102082.38
2023-03-29T00:28:38.929Z,102077.84
2023-03-29T00:30:41.184Z,102073.31
2023-03-29T00:32:44.503Z,102077.84
2023-03-29T00:34:48.574Z,102069.75
2023-03-29T00:36:51.606Z,102067.91
2023-03-29T00:38:53.412Z,102060.81
2023-03-29T00:40:55.198Z,102062.53
2023-03-29T00:42:57.046Z,102056.28
2023-03-29T00:45:05.260Z,102054.56
2023-03-29T00:47:07.313Z,102053.72
2023-03-29T00:49:12.417Z,102051.03
2023-03-29T00:51:17.345Z,102052.03
2023-03-29T00:53:26.065Z,102042.94
2023-03-29T00:55:31.967Z,102044.81
2023-03-29T00:57:34.575Z,102042.25
2023-03-29T00:59:38.875Z,102033.47
2023-03-29T01:01:46.660Z,102035.16
2023-03-29T01:03:54.629Z,102031.59
2023-03-29T01:06:03.118Z,102028.06
2023-03-29T01:08:08.452Z,102021.94
2023-03-29T01:10:16.264Z,102020.13
2023-03-29T01:12:24.259Z,102011.19
2023-03-29T01:14:33.584Z,102016.56
2023-03-29T01:16:36.255Z,102015.88
2023-03-29T01:18:39.340Z,102011.47
2023-03-29T01:21:00.332Z,102015.00
2023-03-29T01:23:22.790Z,102007.91
2023-03-29T01:25:32.962Z,101999.13
2023-03-29T01:27:47.399Z,101998.41
2023-03-29T01:29:54.002Z,101993.16
2023-03-29T01:32:00.355Z,101990.59
2023-03-29T01:34:10.481Z,101989.75
2023-03-29T01:36:16.636Z,101988.03
2023-03-29T01:38:23.661Z,101992.59
2023-03-29T01:40:25.707Z,101986.34
2023-03-29T01:42:39.148Z,101982.78
2023-03-29T01:44:49.781Z,101970.31
2023-03-29T01:46:55.458Z,101968.59
2023-03-29T01:49:00.007Z,101972.31
2023-03-29T01:51:08.696Z,101970.59
2023-03-29T01:53:15.597Z,101962.63
2023-03-29T01:55:23.970Z,101960.97
2023-03-29T01:57:27.258Z,101961.94
2023-03-29T01:59:33.386Z,101952.16
2023-03-29T02:01:41.770Z,101953.84
2023-03-29T02:03:48.093Z,101953.13
2023-03-29T02:05:51.270Z,101952.31
2023-03-29T02:07:54.242Z,101946.91
2023-03-29T02:09:56.288Z,101951.44
2023-03-29T02:12:02.124Z,101949.59
2023-03-29T02:14:04.062Z,101938.84
2023-03-29T02:16:09.776Z,101942.34
2023-03-29T02:18:15.764Z,101936.97
2023-03-29T02:20:20.526Z,101940.69
2023-03-29T02:22:27.612Z,101935.28
2023-03-29T02:24:31.670Z,101932.72
2023-03-29T02:26:33.468Z,101937.13
2023-03-29T02:28:36.138Z,101929.06
2023-03-29T02:30:44.509Z,101926.38
2023-03-29T02:32:57.823Z,101917.31
2023-03-29T02:35:07.082Z,101929.75
2023-03-29T02:37:14.263Z,101917.31
2023-03-29T02:39:17.594Z,101918.97
2023-03-29T02:41:20.513Z,101913.59
2023-03-29T02:43:25.853Z,101910.91
2023-03-29T02:45:30.345Z,101903.69
2023-03-29T02:47:37.310Z,101903.69
2023-03-29T02:49:39.593Z,101895.63
2023-03-29T02:51:44.010Z,101888.41
2023-03-29T02:53:51.282Z,101889.81
2023-03-29T02:55:53.753Z,101889.09
2023-03-29T02:57:55.508Z,101897.91
2023-03-29T02:59:58.935Z,101889.81
2023-03-29T03:02:02.881Z,101886.41
2023-03-29T03:04:08.080Z,101878.94
2023-03-29T03:06:10.158Z,101877.06
2023-03-29T03:08:14.026Z,101871.69
2023-03-29T03:10:16.116Z,101870.69
2023-03-29T03:12:17.955Z,101863.47
2023-03-29T03:14:20.349Z,101864.47
2023-03-29T03:16:22.843Z,101866.03
2023-03-29T03:18:24.880Z,101853.56
2023-03-29T03:20:26.612Z,101851.56
2023-03-29T03:22:28.822Z,101852.59
2023-03-29T03:24:31.853Z,101854.25
2023-03-29T03:26:34.443Z,101842.78
2023-03-29T03:28:36.406Z,101838.25
2023-03-29T03:30:37.977Z,101841.94
2023-03-29T03:32:39.633Z,101834.56
2023-03-29T03:34:41.337Z,101840.09
2023-03-29T03:36:43.016Z,101835.56
2023-03-29T03:38:44.961Z,101838.09
2023-03-29T03:40:56.787Z,101838.84
2023-03-29T03:42:58.792Z,101829.03
2023-03-29T03:45:00.602Z,101826.47
2023-03-29T03:47:02.232Z,101834.56
2023-03-29T03:49:04.136Z,101839.69
2023-03-29T03:51:06.499Z,101836.13
2023-03-29T03:53:08.091Z,101829.91
2023-03-29T03:55:10.134Z,101837.69
2023-03-29T03:57:13.678Z,101826.22
2023-03-29T03:59:15.852Z,101827.78
2023-03-29T04:01:17.770Z,101822.22
2023-03-29T04:03:19.609Z,101819.69
2023-03-29T04:05:21.466Z,101829.31
2023-03-29T04:07:23.118Z,101826.50
2023-03-29T04:09:25.186Z,101820.16
2023-03-29T04:11:27.030Z,101818.16
2023-03-29T04:13:30.342Z,101824.38
2023-03-29T04:15:33.728Z,101819.84
2023-03-29T04:17:35.693Z,101818.03
2023-03-29T04:19:37.496Z,101800.28
2023-03-29T04:21:39.530Z,101802.69
2023-03-29T04:23:41.549Z,101810.63
2023-03-29T04:25:43.617Z,101808.94
2023-03-29T04:27:45.875Z,101809.50
2023-03-29T04:29:49.330Z,101810.50
2023-03-29T04:31:51.161Z,101810.22
2023-03-29T04:33:53.292Z,101804.97
2023-03-29T04:35:56.353Z,101801.16
2023-03-29T04:37:58.852Z,101801.97
2023-03-29T04:40:04.417Z,101796.59
2023-03-29T04:42:06.442Z,101798.47
2023-03-29T04:44:10.600Z,101798.59
2023-03-29T04:46:18.309Z,101800.00
2023-03-29T04:50:48.565Z,101807.09
2023-03-29T04:52:52.095Z,101805.41
2023-03-29T04:55:00.699Z,101806.25
2023-03-29T04:57:08.776Z,101806.25
2023-03-29T04:59:15.780Z,101801.84
2023-03-29T05:01:26.002Z,101799.59
2023-03-29T05:03:32.706Z,101804.97
2023-03-29T05:05:40.189Z,101797.03
2023-03-29T05:07:59.066Z,101806.09
2023-03-29T05:10:10.531Z,101808.38
2023-03-29T05:12:20.400Z,101806.81
2023-03-29T05:17:04.558Z,101796.75
2023-03-29T05:19:06.685Z,101794.03
2023-03-29T05:21:08.443Z,101791.22
2023-03-29T05:23:10.006Z,101791.91
2023-03-29T05:25:11.706Z,101787.38
2023-03-29T05:27:13.553Z,101785.53
2023-03-29T05:29:15.412Z,101786.41
2023-03-29T05:31:17.321Z,101783.53
2023-03-29T05:33:20.711Z,101786.97
2023-03-29T05:35:22.469Z,101783.28
2023-03-29T05:37:24.199Z,101783.28
2023-03-29T05:39:25.992Z,101775.03
2023-03-29T05:41:27.877Z,101781.16
2023-03-29T05:43:29.721Z,101776.63
2023-03-29T05:45:31.443Z,101778.16
2023-03-29T05:47:33.427Z,101773.63
2023-03-29T05:49:36.564Z,101777.00
2023-03-29T05:51:38.388Z,101771.63
2023-03-29T05:53:40.338Z,101775.72
2023-03-29T05:55:42.375Z,101771.19
2023-03-29T05:57:44.527Z,101770.91
2023-03-29T05:59:46.381Z,101769.91
2023-03-29T06:01:48.167Z,101766.94
2023-03-29T06:03:50.386Z,101760.69
2023-03-29T06:05:58.818Z,101766.78
2023-03-29T06:08:00.876Z,101764.66
2023-03-29T06:10:02.452Z,101764.66
2023-03-29T06:12:04.268Z,101762.53
2023-03-29T06:14:05.913Z,101757.97
2023-03-29T06:16:08.615Z,101757.53
2023-03-29T06:18:10.694Z,101753.84
2023-03-29T06:20:12.846Z,101745.44
2023-03-29T06:22:16.021Z,101745.31
2023-03-29T06:24:17.763Z,101735.22
2023-03-29T06:26:19.806Z,101737.91
2023-03-29T06:28:22.485Z,101742.88
2023-03-29T06:30:24.487Z,101739.03
2023-03-29T06:32:26.369Z,101733.63
2023-03-29T06:34:28.522Z,101749.38
2023-03-29T06:36:30.234Z,101743.00
2023-03-29T06:38:33.298Z,101749.94
2023-03-29T06:40:35.620Z,101750.47
2023-03-29T06:42:37.331Z,101741.41
2023-03-29T06:44:39.095Z,101743.78
2023-03-29T06:46:41.000Z,101739.13
2023-03-29T06:48:42.686Z,101735.25
2023-03-29T06:50:44.342Z,101736.81
2023-03-29T06:52:46.728Z,101743.78
2023-03-29T06:54:50.927Z,101740.91
2023-03-29T06:56:53.108Z,101736.06
2023-03-29T06:58:55.297Z,101726.13
2023-03-29T07:03:05.636Z,101728.22
2023-03-29T07:05:07.772Z,101735.19
2023-03-29T07:07:09.593Z,101729.47
2023-03-29T07:09:11.151Z,101722.06
2023-03-29T07:11:16.006Z,101725.03
2023-03-29T07:13:17.592Z,101722.03
2023-03-29T07:15:19.733Z,101726.94
2023-03-29T07:17:21.384Z,101722.13
2023-03-29T07:19:23.951Z,101718.25
2023-03-29T07:21:25.790Z,101724.19
2023-03-29T07:23:27.875Z,101720.34
2023-03-29T07:25:29.520Z,101718.91
2023-03-29T07:27:33.231Z,101716.72
2023-03-29T07:29:35.262Z,101721.81
2023-03-29T07:31:37.030Z,101722.38
2023-03-29T07:33:39.380Z,101719.34
2023-03-29T07:35:41.567Z,101722.44
2023-03-29T07:37:44.736Z,101720.44
2023-03-29T07:39:46.405Z,101717.41
2023-03-29T07:41:48.038Z,101715.25
2023-03-29T07:43:51.639Z,101720.22
2023-03-29T07:45:53.595Z,101709.97
2023-03-29T07:47:57.486Z,101714.06
2023-03-29T07:49:59.285Z,101710.03
2023-03-29T07:52:01.473Z,101710.56
2023-03-29T07:54:03.350Z,101711.09
2023-03-29T07:56:05.645Z,101710.78
2023-03-29T07:58:07.183Z,101707.63
2023-03-29T08:00:12.908Z,101699.06
2023-03-29T08:02:14.476Z,101708.38
2023-03-29T08:04:16.407Z,101712.47
2023-03-29T08:06:18.087Z,101721.81
2023-03-29T08:08:19.650Z,101715.22
2023-03-29T08:10:22.811Z,101712.06
2023-03-29T08:12:25.086Z,101709.88
2023-03-29T08:14:26.752Z,101712.13
2023-03-29T08:16:30.092Z,101704.34
2023-03-29T08:18:34.583Z,101701.19
2023-03-29T08:20:36.822Z,101708.63
2023-03-29T08:22:38.683Z,101703.59
2023-03-29T08:24:40.538Z,101703.13
2023-03-29T08:26:42.469Z,101691.84
2023-03-29T08:28:47.275Z,101702.66
2023-03-29T08:30:48.889Z,101700.19
2023-03-29T08:32:54.464Z,101705.78
2023-03-29T08:34:57.210Z,101689.75
2023-03-29T08:36:59.246Z,101687.22
2023-03-29T08:39:01.273Z,101695.22
2023-03-29T08:41:22.659Z,101688.81
2023-03-29T08:43:59.662Z,101680.72
2023-03-29T08:46:12.289Z,101687.00
2023-03-29T08:48:25.755Z,101686.19
2023-03-29T08:50:34.105Z,101679.06
2023-03-29T08:52:38.622Z,101677.53
2023-03-29T08:54:43.493Z,101674.19
2023-03-29T08:56:46.976Z,101675.53
2023-03-29T08:58:52.118Z,101675.53
2023-03-29T09:00:57.252Z,101671.47
2023-03-29T09:02:59.186Z,101676.03
2023-03-29T09:05:08.616Z,101665.84
2023-03-29T09:07:11.708Z,101663.50
2023-03-29T09:09:17.337Z,101665.00
2023-03-29T09:11:47.766Z,101655.53
2023-03-29T09:13:57.848Z,101656.38
2023-03-29T09:16:07.549Z,101644.31
2023-03-29T09:18:17.551Z,101645.94
2023-03-29T09:20:40.979Z,101641.50
2023-03-29T09:22:52.954Z,101644.84
2023-03-29T09:25:07.748Z,101630.88
2023-03-29T09:27:16.904Z,101635.09
2023-03-29T09:29:48.190Z,101625.69
2023-03-29T09:31:50.308Z,101633.78
2023-03-29T09:34:05.103Z,101630.84
2023-03-29T09:36:12.037Z,101632.66
2023-03-29T09:38:16.358Z,101621.03
2023-03-29T09:40:23.099Z,101622.69
2023-03-29T09:42:29.266Z,101623.13
2023-03-29T09:44:43.193Z,101622.00
2023-03-29T09:46:53.647Z,101617.34
2023-03-29T09:48:57.051Z,101612.69
2023-03-29T09:51:02.151Z,101599.84
2023-03-29T09:53:05.802Z,101604.59
2023-03-29T09:55:13.529Z,101600.28
2023-03-29T09:57:20.159Z,101603.75
2023-03-29T09:59:24.327Z,101599.63
2023-03-29T10:01:36.286Z,101599.34
2023-03-29T10:03:43.015Z,101593.13
2023-03-29T10:05:46.505Z,101597.47
2023-03-29T10:07:51.693Z,101582.25
2023-03-29T10:09:55.907Z,101595.75
2023-03-29T10:12:00.681Z,101587.50
2023-03-29T10:14:05.603Z,101585.53
2023-03-29T10:16:09.824Z,101582.47
2023-03-29T10:18:13.479Z,101581.34
2023-03-29T10:20:19.160Z,101580.38
2023-03-29T10:22:23.768Z,101581.94
2023-03-29T10:24:26.709Z,101578.47
2023-03-29T10:26:32.119Z,101580.00
2023-03-29T10:28:36.740Z,101575.28
2023-03-29T10:30:39.428Z,101578.34
2023-03-29T10:32:41.091Z,101569.19
2023-03-29T10:34:45.273Z,101557.97
2023-03-29T10:36:57.394Z,101559.47
2023-03-29T10:39:03.571Z,101568.59
2023-03-29T10:41:11.023Z,101564.03
2023-03-29T10:43:20.781Z,101556.72
2023-03-29T10:45:27.332Z,101560.34
2023-03-29T10:47:32.045Z,101561.41
2023-03-29T10:49:40.458Z,101561.66
2023-03-29T10:51:45.839Z,101558.53
2023-03-29T10:53:47.424Z,101556.91
2023-03-29T10:56:00.733Z,101559.84
2023-03-29T10:58:18.759Z,101553.38
2023-03-29T11:00:32.093Z,101569.41
2023-03-29T11:03:08.694Z,101559.81
2023-03-29T11:05:22.058Z,101557.72
2023-03-29T11:07:29.677Z,101553.59
2023-03-29T11:09:45.732Z,101553.19
2023-03-29T11:12:15.089Z,101551.13
2023-03-29T11:14:29.856Z,101545.28
2023-03-29T11:16:41.856Z,101543.22
2023-03-29T11:19:10.921Z,101546.19
2023-03-29T11:21:24.743Z,101535.88
2023-03-29T11:23:40.074Z,101533.78
2023-03-29T11:25:53.734Z,101537.78
2023-03-29T11:28:02.545Z,101530.44
2023-03-29T11:30:10.570Z,101530.84
2023-03-29T11:32:22.089Z,101535.69
2023-03-29T11:34:34.392Z,101533.81
2023-03-29T11:36:48.667Z,101522.84
2023-03-29T11:39:02.594Z,101533.16
2023-03-29T11:41:13.817Z,101526.00
2023-03-29T11:43:22.830Z,101522.00
2023-03-29T11:45:31.783Z,101525.13
2023-03-29T11:47:39.649Z,101531.66
2023-03-29T11:49:45.572Z,101527.44
2023-03-29T11:51:53.886Z,101520.06
2023-03-29T11:54:03.391Z,101519.41
2023-03-29T11:56:10.598Z,101515.59
2023-03-29T11:58:19.828Z,101518.09
2023-03-29T12:00:25.464Z,101509.84
2023-03-29T12:02:33.564Z,101499.88
2023-03-29T12:04:42.677Z,101503.19
2023-03-29T12:06:53.029Z,101494.25
2023-03-29T12:09:00.430Z,101483.09
2023-03-29T12:11:07.216Z,101490.69
2023-03-29T12:13:16.632Z,101485.03
2023-03-29T12:15:21.904Z,101482.94
2023-03-29T12:17:30.640Z,101471.09
2023-03-29T12:19:40.309Z,101477.63
2023-03-29T12:21:47.248Z,101475.66
2023-03-29T12:23:50.135Z,101476.25
2023-03-29T12:25:57.259Z,101485.47
2023-03-29T12:28:19.488Z,101484.16
2023-03-29T12:30:45.231Z,101467.41
2023-03-29T12:33:02.056Z,101470.94
2023-03-29T12:35:21.541Z,101474.34
2023-03-29T12:37:34.644Z,101472.38
2023-03-29T12:39:37.426Z,101472.97
2023-03-29T12:41:39.276Z,101467.09
2023-03-29T12:43:41.775Z,101476.88
2023-03-29T12:45:45.217Z,101469.47
2023-03-29T12:47:49.349Z,101457.81
2023-03-29T12:49:54.552Z,101456.75
2023-03-29T12:51:58.947Z,101450.81
2023-03-29T12:54:06.361Z,101463.41
2023-03-29T12:56:15.059Z,101460.75
2023-03-29T12:58:40.467Z,101463.31
2023-03-29T13:00:44.951Z,101466.69
2023-03-29T13:03:00.226Z,101461.41
2023-03-29T13:05:02.346Z,101465.25
2023-03-29T13:07:04.549Z,101463.41
2023-03-29T13:09:23.253Z,101467.66
2023-03-29T13:11:28.085Z,101471.06
2023-03-29T13:13:33.662Z,101471.50
2023-03-29T13:15:37.178Z,101468.56
2023-03-29T13:17:50.804Z,101467.34
2023-03-29T13:20:07.767Z,101464.19
2023-03-29T13:22:23.727Z,101466.16
2023-03-29T13:24:51.690Z,101459.88
2023-03-29T13:27:00.686Z,101461.44
2023-03-29T13:29:41.514Z,101453.88
2023-03-29T13:31:49.733Z,101442.09
2023-03-29T13:34:02.734Z,101438.34
2023-03-29T13:36:11.622Z,101445.09
2023-03-29T13:38:19.659Z,101436.88
2023-03-29T13:40:32.268Z,101440.69
2023-03-29T13:42:40.191Z,101446.38
2023-03-29T13:44:44.204Z,101428.72
2023-03-29T13:46:48.067Z,101417.97
2023-03-29T13:48:59.647Z,101413.56
2023-03-29T13:51:03.434Z,101411.06
2023-03-29T13:53:13.767Z,101415.09
2023-03-29T13:55:21.402Z,101429.44
2023-03-29T13:57:30.967Z,101432.63
2023-03-29T13:59:41.619Z,101441.47
2023-03-29T14:01:48.521Z,101449.50
2023-03-29T14:03:51.145Z,101441.50
2023-03-29T14:05:59.058Z,101430.78
2023-03-29T14:08:07.759Z,101426.75
2023-03-29T14:10:13.750Z,101418.16
2023-03-29T14:12:15.746Z,101424.06
2023-03-29T14:14:22.571Z,101422.19
2023-03-29T14:16:27.908Z,101427.25
2023-03-29T14:18:34.577Z,101427.91
2023-03-29T14:20:36.787Z,101421.41
2023-03-29T14:22:38.402Z,101434.22
2023-03-29T14:24:45.243Z,101427.94
2023-03-29T14:26:47.484Z,101426.47
2023-03-29T14:28:51.532Z,101431.31
2023-03-29T14:30:55.718Z,101424.81
2023-03-29T14:32:57.413Z,101421.03
2023-03-29T14:35:00.480Z,101423.16
2023-03-29T14:37:02.339Z,101414.53
2023-03-29T14:39:06.105Z,101418.75
2023-03-29T14:41:08.840Z,101424.22
2023-03-29T14:43:17.814Z,101421.69
2023-03-29T14:45:22.145Z,101429.28
2023-03-29T14:47:28.553Z,101431.59
2023-03-29T14:49:31.472Z,101433.06
2023-03-29T14:51:33.734Z,101430.75
2023-03-29T14:53:36.807Z,101429.50
2023-03-29T14:55:38.672Z,101425.06
2023-03-29T14:57:42.212Z,101415.00
2023-03-29T14:59:49.022Z,101417.09
2023-03-29T15:01:50.909Z,101424.44
2023-03-29T15:03:56.441Z,101423.19
2023-03-29T15:06:02.184Z,101430.13
2023-03-29T15:08:05.676Z,101420.88
2023-03-29T15:10:08.729Z,101426.94
2023-03-29T15:12:15.847Z,101422.72
2023-03-29T15:14:20.155Z,101423.13
2023-03-29T15:16:22.391Z,101407.16
2023-03-29T15:18:29.346Z,101421.88
2023-03-29T15:20:37.548Z,101417.66
2023-03-29T15:22:51.774Z,101413.66
2023-03-29T15:24:53.791Z,101410.09
2023-03-29T15:27:00.927Z,101396.66
2023-03-29T15:29:06.820Z,101405.03
2023-03-29T15:31:12.685Z,101412.81
2023-03-29T15:33:16.169Z,101411.97
2023-03-29T15:35:23.169Z,101407.56
2023-03-29T15:37:27.489Z,101415.13
2023-03-29T15:39:29.746Z,101405.47
2023-03-29T15:41:31.714Z,101408.38
2023-03-29T15:43:34.087Z,101399.75
2023-03-29T15:45:35.568Z,101389.91
2023-03-29T15:47:37.229Z,101385.69
2023-03-29T15:49:39.065Z,101386.72
2023-03-29T15:51:41.494Z,101388.66
2023-03-29T15:53:44.615Z,101381.69
2023-03-29T15:55:49.004Z,101386.31
2023-03-29T15:57:54.191Z,101381.06
2023-03-29T15:59:56.441Z,101374.97
2023-03-29T16:01:58.914Z,101372.44
2023-03-29T16:04:00.642Z,101362.56
2023-03-29T16:06:02.476Z,101372.88
2023-03-29T16:08:04.422Z,101370.53
2023-03-29T16:10:08.748Z,101371.59
2023-03-29T16:12:10.834Z,101366.56
2023-03-29T16:14:19.014Z,101361.28
2023-03-29T16:16:20.775Z,101356.03
2023-03-29T16:18:22.436Z,101355.19
2023-03-29T16:20:23.994Z,101358.13
2023-03-29T16:22:25.811Z,101364.63
2023-03-29T16:24:29.987Z,101360.22
2023-03-29T16:26:33.448Z,101358.34
2023-03-29T16:28:35.027Z,101359.41
2023-03-29T16:30:37.829Z,101354.34
2023-03-29T16:32:39.410Z,101355.19
2023-03-29T16:34:40.937Z,101354.34
2023-03-29T16:36:43.122Z,101359.16
2023-03-29T16:38:44.795Z,101359.34
2023-03-29T16:40:46.848Z,101351.41
2023-03-29T16:42:49.950Z,101360.63
2023-03-29T16:44:51.614Z,101355.34
2023-03-29T16:46:53.433Z,101356.63
2023-03-29T16:48:54.995Z,101360.59
2023-03-29T16:50:56.564Z,101357.88
2023-03-29T16:52:58.146Z,101365.22
2023-03-29T16:54:59.695Z,101361.88
2023-03-29T16:57:01.351Z,101352.19
2023-03-29T16:59:04.235Z,101355.75
2023-03-29T17:01:09.960Z,101351.34
2023-03-29T17:03:11.852Z,101356.59
2023-03-29T17:05:13.445Z,101360.34
2023-03-29T17:07:15.280Z,101356.16
2023-03-29T17:09:17.030Z,101359.25
2023-03-29T17:11:18.631Z,101362.00
2023-03-29T17:13:20.257Z,101354.03
2023-03-29T17:15:23.220Z,101359.06
2023-03-29T17:17:24.979Z,101356.34
2023-03-29T17:19:26.803Z,101351.91
2023-03-29T17:21:28.580Z,101345.63
2023-03-29T17:23:30.176Z,101352.94
2023-03-29T17:25:31.736Z,101355.06
2023-03-29T17:27:33.320Z,101359.66
2023-03-29T17:29:34.988Z,101358.38
2023-03-29T17:31:38.271Z,101354.81
2023-03-29T17:33:40.026Z,101354.81
2023-03-29T17:35:42.175Z,101357.75
2023-03-29T17:37:44.152Z,101356.25
2023-03-29T17:39:45.969Z,101350.19
2023-03-29T17:41:47.589Z,101354.78
2023-03-29T17:43:49.177Z,101347.66
2023-03-29T17:45:51.611Z,101349.75
2023-03-29T17:47:54.643Z,101347.22
2023-03-29T17:49:56.560Z,101341.97
2023-03-29T17:51:58.142Z,101345.94
2023-03-29T17:53:59.757Z,101339.66
2023-03-29T17:56:01.465Z,101340.03
2023-03-29T17:58:03.422Z,101343.00
2023-03-29T18:00:08.026Z,101338.75
2023-03-29T18:02:16.065Z,101335.22
2023-03-29T18:04:19.056Z,101339.97
2023-03-29T18:06:20.689Z,101341.84
2023-03-29T18:08:22.239Z,101341.22
2023-03-29T18:10:23.962Z,101348.56
2023-03-29T18:12:26.241Z,101347.94
2023-03-29T18:14:27.948Z,101351.69
2023-03-29T18:16:29.484Z,101355.47
2023-03-29T18:18:31.093Z,101354.84
2023-03-29T18:20:34.040Z,101358.38
2023-03-29T18:22:35.538Z,101359.44
2023-03-29T18:24:37.084Z,101351.44
2023-03-29T18:26:38.620Z,101361.72
2023-03-29T18:28:40.950Z,101353.97
2023-03-29T18:30:42.590Z,101352.25
2023-03-29T18:32:44.230Z,101357.06
2023-03-29T18:34:45.721Z,101349.09
2023-03-29T18:36:48.599Z,101352.22
2023-03-29T18:38:50.131Z,101354.09
2023-03-29T18:40:52.022Z,101347.16
2023-03-29T18:42:53.708Z,101349.06
2023-03-29T18:44:55.185Z,101359.50
2023-03-29T18:46:56.656Z,101357.63
2023-03-29T18:48:58.684Z,101356.13
2023-03-29T18:51:00.230Z,101354.66
2023-03-29T18:53:03.913Z,101355.69
2023-03-29T18:55:06.750Z,101358.59
2023-03-29T18:57:08.451Z,101354.41
2023-03-29T18:59:10.504Z,101351.06
2023-03-29T19:01:12.257Z,101350.41
2023-03-29T19:03:14.146Z,101352.50
2023-03-29T19:05:16.221Z,101358.97
2023-03-29T19:07:17.780Z,101357.28
2023-03-29T19:09:20.700Z,101360.22
2023-03-29T19:11:22.484Z,101357.69
2023-03-29T19:13:24.244Z,101359.56
2023-03-29T19:15:26.238Z,101354.50
2023-03-29T19:17:27.868Z,101357.22
2023-03-29T19:19:29.432Z,101351.16
2023-03-29T19:21:31.066Z,101355.09
2023-03-29T19:23:32.714Z,101350.72
2023-03-29T19:25:35.862Z,101349.03
2023-03-29T19:27:37.812Z,101354.66
2023-03-29T19:29:39.599Z,101355.69
2023-03-29T19:31:41.330Z,101354.19
2023-03-29T19:33:42.940Z,101355.22
2023-03-29T19:35:44.625Z,101350.19
2023-03-29T19:37:46.169Z,101352.28
2023-03-29T19:39:47.922Z,101353.31
2023-03-29T19:41:50.851Z,101358.97
2023-03-29T19:43:52.570Z,101353.03
2023-03-29T19:45:54.044Z,101354.28
2023-03-29T19:47:56.237Z,101353.66
2023-03-29T19:49:57.916Z,101350.28
2023-03-29T19:51:59.518Z,101346.06
2023-03-29T19:54:01.301Z,101346.25
2023-03-29T19:56:03.089Z,101354.63
2023-03-29T19:58:06.801Z,101356.69
2023-03-29T20:00:09.595Z,101345.19
2023-03-29T20:02:11.449Z,101354.38
2023-03-29T20:04:13.558Z,101354.75
2023-03-29T20:06:15.434Z,101352.44
2023-03-29T20:08:16.962Z,101346.53
2023-03-29T20:10:18.880Z,101342.13
2023-03-29T20:12:20.420Z,101340.66
2023-03-29T20:14:23.447Z,101337.25
2023-03-29T20:16:25.374Z,101334.75
2023-03-29T20:18:27.171Z,101333.25
2023-03-29T20:20:29.119Z,101328.19
2023-03-29T20:22:30.671Z,101331.78
2023-03-29T20:24:32.200Z,101329.91
2023-03-29T20:26:34.046Z,101333.63
2023-03-29T20:28:35.670Z,101333.84
2023-03-29T20:30:39.323Z,101332.16
2023-03-29T20:32:40.924Z,101325.03
2023-03-29T20:34:42.573Z,101316.22
2023-03-29T20:36:44.250Z,101314.53
2023-03-29T20:38:45.819Z,101310.97
2023-03-29T20:40:47.581Z,101310.13
2023-03-29T20:42:49.091Z,101300.28
2023-03-29T20:44:50.892Z,101299.47
2023-03-29T20:46:54.786Z,101303.19
2023-03-29T20:48:56.351Z,101294.19
2023-03-29T20:50:57.957Z,101298.78
2023-03-29T20:52:59.723Z,101287.06
2023-03-29T20:55:01.351Z,101283.50
2023-03-29T20:57:03.072Z,101279.97
2023-03-29T20:59:04.902Z,101288.13
2023-03-29T21:01:06.777Z,101281.84
2023-03-29T21:03:10.124Z,101285.59
2023-03-29T21:05:12.090Z,101279.50
2023-03-29T21:07:14.233Z,101274.88
2023-03-29T21:09:16.589Z,101267.97
2023-03-29T21:11:18.874Z,101268.81
2023-03-29T21:13:20.451Z,101266.09
2023-03-29T21:15:22.048Z,101261.69
2023-03-29T21:17:23.772Z,101269.84
2023-03-29T21:19:27.404Z,101267.13
2023-03-29T21:21:29.190Z,101269.00
2023-03-29T21:23:30.704Z,101260.00
2023-03-29T21:25:32.283Z,101256.63
2023-03-29T21:27:34.077Z,101250.34
2023-03-29T21:29:35.655Z,101251.19
2023-03-29T21:31:37.614Z,101255.78
2023-03-29T21:33:39.268Z,101252.44
2023-03-29T21:35:42.184Z,101252.22
2023-03-29T21:37:43.708Z,101248.66
2023-03-29T21:39:45.300Z,101252.44
2023-03-29T21:41:46.796Z,101250.75
2023-03-29T21:43:48.715Z,101245.50
2023-03-29T21:45:52.938Z,101245.69
2023-03-29T21:47:54.529Z,101242.97
2023-03-29T21:49:56.120Z,101242.97
2023-03-29T21:51:59.041Z,101237.72
2023-03-29T21:54:00.696Z,101232.50
2023-03-29T21:56:02.669Z,101229.78
2023-03-29T21:58:04.924Z,101231.84
2023-03-29T22:00:09.864Z,101230.16
2023-03-29T22:02:17.366Z,101229.34
2023-03-29T22:04:29.527Z,101218.63
2023-03-29T22:06:35.004Z,101217.75
2023-03-29T22:08:38.100Z,101227.16
2023-03-29T22:10:40.223Z,101217.50
2023-03-29T22:12:41.892Z,101205.13
2023-03-29T22:14:43.498Z,101207.84
2023-03-29T22:16:47.272Z,101213.50
2023-03-29T22:18:50.428Z,101219.31
2023-03-29T22:20:52.000Z,101218.50
2023-03-29T22:22:53.586Z,101217.81
2023-03-29T22:24:56.497Z,101216.97
2023-03-29T22:27:02.159Z,101210.06
2023-03-29T22:29:03.819Z,101213.81
2023-03-29T22:31:08.146Z,101212.31
2023-03-29T22:33:09.774Z,101209.16
2023-03-29T22:35:11.519Z,101219.81
2023-03-29T22:37:15.450Z,101216.47
2023-03-29T22:39:20.757Z,101211.22
2023-03-29T22:41:26.910Z,101206.84
2023-03-29T22:43:28.537Z,101210.56
2023-03-29T22:45:30.281Z,101215.34
2023-03-29T22:47:35.171Z,101211.81
2023-03-29T22:49:40.089Z,101204.00
2023-03-29T22:51:41.729Z,101211.34
2023-03-29T22:53:43.504Z,101215.94
2023-03-29T22:55:45.074Z,101208.81
2023-03-29T22:57:47.892Z,101207.34
2023-03-29T22:59:49.437Z,101203.78
2023-03-29T23:01:51.235Z,101199.38
2023-03-29T23:03:53.114Z,101192.91
2023-03-29T23:05:56.822Z,101193.94
2023-03-29T23:07:58.599Z,101191.22
2023-03-29T23:10:00.198Z,101183.91
2023-03-29T23:12:01.824Z,101186.81
2023-03-29T23:14:04.833Z,101188.66
2023-03-29T23:16:07.283Z,101179.72
2023-03-29T23:18:09.859Z,101177.81
2023-03-29T23:20:12.045Z,101179.72
2023-03-29T23:22:13.643Z,101182.44
2023-03-29T23:24:16.970Z,101180.72
2023-03-29T23:26:20.432Z,101170.03
2023-03-29T23:28:24.645Z,101183.63
2023-03-29T23:30:27.972Z,101178.41
2023-03-29T23:32:29.619Z,101174.00
2023-03-29T23:34:31.264Z,101172.97
2023-03-29T23:36:32.864Z,101156.69
2023-03-29T23:38:36.120Z,101150.41
2023-03-29T23:40:37.827Z,101152.25
2023-03-29T23:42:39.901Z,101151.63
2023-03-29T23:44:41.475Z,101155.38
2023-03-29T23:46:44.366Z,101148.25
2023-03-29T23:48:46.895Z,101157.25